Time;durP1;ratioP1;P1;durP2;ratioP2;P2;SDS_P1;SDS_P2;PMS_P1;PMS_P2;Temp;Humidity;BMP_temperature;BMP_pressure;BME280_temperature;BME280_humidity;BME280_pressure;Samples;Min_cycle;Max_cycle;Signal;HPM_P1;HPM_P2
2021/06/29 00:01:01;;;;;;;;;;;19.90;99.90;;;;;;5038800;28;19909;-54
2021/06/29 00:03:46;;;;;;;;;;;19.90;99.90;;;;;;5045788;28;20050;-54
2021/06/29 00:06:12;;;;;;;;;;;19.80;99.90;;;;;;5040910;28;19909;-57
2021/06/29 00:08:37;;;;;;;;;;;19.80;99.90;;;;;;5042992;28;19913;-53
2021/06/29 00:11:03;;;;;;;;;;;19.70;99.90;;;;;;5034591;28;19917;-59
2021/06/29 00:13:29;;;;;;;;;;;19.60;99.90;;;;;;5033971;28;19963;-56
2021/06/29 00:15:54;;;;;;;;;;;19.60;99.90;;;;;;5043645;28;19912;-56
2021/06/29 00:18:20;;;;;;;;;;;19.50;99.90;;;;;;5039146;28;19909;-58
2021/06/29 00:20:45;;;;;;;;;;;19.50;99.90;;;;;;5039380;28;19909;-57
2021/06/29 00:23:11;;;;;;;;;;;19.50;99.90;;;;;;5042049;28;19909;-58
2021/06/29 00:25:36;;;;;;;;;;;19.40;99.90;;;;;;5042094;28;19921;-57
2021/06/29 00:28:02;;;;;;;;;;;19.40;99.90;;;;;;5037598;28;19913;-58
2021/06/29 00:30:27;;;;;;;;;;;19.40;99.90;;;;;;5033973;28;19913;-57
2021/06/29 00:32:53;;;;;;;;;;;19.40;99.90;;;;;;5042054;28;20359;-56
2021/06/29 00:35:18;;;;;;;;;;;19.40;99.90;;;;;;5042403;28;19909;-57
2021/06/29 00:37:44;;;;;;;;;;;19.40;99.90;;;;;;5028054;28;20326;-58
2021/06/29 00:40:10;;;;;;;;;;;19.40;99.90;;;;;;5029230;28;19917;-57
2021/06/29 00:42:36;;;;;;;;;;;19.40;99.90;;;;;;5025474;28;19916;-54
2021/06/29 00:45:02;;;;;;;;;;;19.40;99.90;;;;;;5039912;28;20287;-55
2021/06/29 00:47:28;;;;;;;;;;;19.40;99.90;;;;;;5043100;28;20003;-54
2021/06/29 00:49:53;;;;;;;;;;;19.40;99.90;;;;;;5041707;28;19945;-55
2021/06/29 00:52:19;;;;;;;;;;;19.30;99.90;;;;;;5024342;28;20367;-55
2021/06/29 00:54:44;;;;;;;;;;;19.30;99.90;;;;;;5042083;28;19909;-55
2021/06/29 00:57:11;;;;;;;;;;;19.40;99.90;;;;;;5039364;28;19924;-57
2021/06/29 00:59:38;;;;;;;;;;;19.30;99.90;;;;;;5041204;28;20667;-57
2021/06/29 01:02:03;;;;;;;;;;;19.30;99.90;;;;;;5019995;28;19948;-57
2021/06/29 01:04:30;;;;;;;;;;;19.20;99.90;;;;;;5042007;28;19947;-58
2021/06/29 01:06:56;;;;;;;;;;;19.20;99.90;;;;;;5040739;28;19916;-56
2021/06/29 01:09:21;;;;;;;;;;;19.20;99.90;;;;;;5038422;28;19991;-55
2021/06/29 01:11:47;;;;;;;;;;;19.10;99.90;;;;;;5044382;28;19917;-56
2021/06/29 01:14:14;;;;;;;;;;;19.10;99.90;;;;;;5039015;28;19979;-57
2021/06/29 01:16:40;;;;;;;;;;;19.10;99.90;;;;;;5043881;28;19944;-53
2021/06/29 01:19:05;;;;;;;;;;;19.00;99.90;;;;;;5005507;28;19962;-54
2021/06/29 01:21:40;;;;;;;;;;;19.00;99.90;;;;;;5043892;28;20003;-56
2021/06/29 01:24:23;;;;;;;;;;;18.90;99.90;;;;;;5039827;28;19916;-56
2021/06/29 01:27:02;;;;;;;;;;;18.90;99.90;;;;;;5034893;28;20350;-56
2021/06/29 01:29:44;;;;;;;;;;;18.90;99.90;;;;;;5042967;28;19944;-54
2021/06/29 01:32:14;;;;;;;;;;;18.90;99.90;;;;;;5041310;28;19921;-56
2021/06/29 01:34:39;;;;;;;;;;;18.90;99.90;;;;;;5023922;28;19909;-56
2021/06/29 01:37:05;;;;;;;;;;;18.80;99.90;;;;;;5040311;28;20298;-58
2021/06/29 01:39:30;;;;;;;;;;;18.90;99.90;;;;;;5041984;28;19970;-55
2021/06/29 01:41:56;;;;;;;;;;;18.90;99.90;;;;;;5039785;28;19909;-57
2021/06/29 01:44:28;;;;;;;;;;;18.90;99.90;;;;;;5024059;28;19917;-57
2021/06/29 01:46:55;;;;;;;;;;;18.90;99.90;;;;;;5040402;28;19936;-53
2021/06/29 01:49:24;;;;;;;;;;;18.90;99.90;;;;;;5042108;28;20031;-55
2021/06/29 01:51:50;;;;;;;;;;;18.90;99.90;;;;;;5040942;28;20007;-56
2021/06/29 01:54:15;;;;;;;;;;;18.90;99.90;;;;;;5024031;28;20008;-53
2021/06/29 01:56:41;;;;;;;;;;;18.90;99.90;;;;;;5040989;28;19912;-56
2021/06/29 01:59:08;;;;;;;;;;;18.90;99.90;;;;;;5040826;28;19909;-57
2021/06/29 02:01:34;;;;;;;;;;;18.90;99.90;;;;;;5041873;28;19920;-56
2021/06/29 02:03:59;;;;;;;;;;;18.90;99.90;;;;;;5040584;28;19979;-54
2021/06/29 02:06:25;;;;;;;;;;;18.90;99.90;;;;;;5041462;28;20329;-59
2021/06/29 02:08:50;;;;;;;;;;;18.90;99.90;;;;;;5047255;28;20506;-57
2021/06/29 02:11:16;;;;;;;;;;;18.90;99.90;;;;;;5041725;28;20390;-54
2021/06/29 02:13:41;;;;;;;;;;;18.90;99.90;;;;;;5040793;28;19916;-54
2021/06/29 02:16:07;;;;;;;;;;;18.80;99.90;;;;;;5040070;28;19916;-55
2021/06/29 02:18:32;;;;;;;;;;;18.80;99.90;;;;;;5024064;28;20271;-54
2021/06/29 02:20:58;;;;;;;;;;;18.80;99.90;;;;;;5043887;28;20433;-55
2021/06/29 02:23:24;;;;;;;;;;;18.80;99.90;;;;;;5027414;28;19916;-55
2021/06/29 02:25:50;;;;;;;;;;;18.80;99.90;;;;;;5026736;28;19924;-55
2021/06/29 02:28:15;;;;;;;;;;;18.80;99.90;;;;;;5032285;28;19909;-54
2021/06/29 02:30:41;;;;;;;;;;;18.80;99.90;;;;;;5044444;28;19931;-56
2021/06/29 02:33:07;;;;;;;;;;;18.80;99.90;;;;;;5043721;28;19909;-57
2021/06/29 02:35:33;;;;;;;;;;;18.70;99.90;;;;;;5044563;28;19916;-55
2021/06/29 02:37:58;;;;;;;;;;;18.70;99.90;;;;;;5045637;28;19929;-56
2021/06/29 02:40:24;;;;;;;;;;;18.70;99.90;;;;;;5044446;28;19909;-56
2021/06/29 02:42:50;;;;;;;;;;;18.70;99.90;;;;;;5044563;28;19908;-53
2021/06/29 02:45:20;;;;;;;;;;;18.70;99.90;;;;;;5023906;28;19909;-53
2021/06/29 02:47:46;;;;;;;;;;;18.70;99.90;;;;;;5044786;28;19908;-53
2021/06/29 02:50:12;;;;;;;;;;;18.70;99.90;;;;;;5026254;28;19999;-57
2021/06/29 02:52:37;;;;;;;;;;;18.70;99.90;;;;;;5044256;28;20012;-55
2021/06/29 02:55:04;;;;;;;;;;;18.70;99.90;;;;;;5041946;28;19908;-56
2021/06/29 02:57:30;;;;;;;;;;;18.60;99.90;;;;;;5044621;28;19909;-53
2021/06/29 02:59:55;;;;;;;;;;;18.60;99.90;;;;;;5043329;28;19955;-55
2021/06/29 03:02:20;;;;;;;;;;;18.70;99.90;;;;;;5026109;28;19970;-53
2021/06/29 03:04:46;;;;;;;;;;;18.60;99.90;;;;;;5044142;28;20005;-55
2021/06/29 03:07:11;;;;;;;;;;;18.60;99.90;;;;;;5043787;28;19908;-56
2021/06/29 03:09:37;;;;;;;;;;;18.50;99.90;;;;;;5026193;28;20391;-57
2021/06/29 03:12:03;;;;;;;;;;;18.50;99.90;;;;;;5041985;28;20389;-57
2021/06/29 03:14:28;;;;;;;;;;;18.40;99.90;;;;;;5043662;28;20026;-54
2021/06/29 03:16:54;;;;;;;;;;;18.40;99.90;;;;;;5043344;28;19932;-56
2021/06/29 03:19:20;;;;;;;;;;;18.40;99.90;;;;;;5043475;28;20414;-54
2021/06/29 03:21:45;;;;;;;;;;;18.40;99.90;;;;;;5043907;28;19913;-55
2021/06/29 03:24:11;;;;;;;;;;;18.30;99.90;;;;;;5049250;28;19966;-57
2021/06/29 03:26:37;;;;;;;;;;;18.30;99.90;;;;;;5043673;28;19919;-54
2021/06/29 03:29:04;;;;;;;;;;;18.30;99.90;;;;;;5041955;28;20007;-55
2021/06/29 03:31:30;;;;;;;;;;;18.30;99.90;;;;;;5044039;28;20432;-53
2021/06/29 03:33:56;;;;;;;;;;;18.30;99.90;;;;;;5042601;28;20011;-55
2021/06/29 03:36:21;;;;;;;;;;;18.30;99.90;;;;;;5041615;28;20005;-53
2021/06/29 03:38:47;;;;;;;;;;;18.30;99.90;;;;;;5040174;28;19924;-53
2021/06/29 03:41:12;;;;;;;;;;;18.40;99.90;;;;;;5046488;28;19917;-53
2021/06/29 03:43:38;;;;;;;;;;;18.40;99.90;;;;;;5039592;28;19917;-54
2021/06/29 03:46:05;;;;;;;;;;;18.50;99.90;;;;;;5046691;28;19905;-55
2021/06/29 03:48:30;;;;;;;;;;;18.50;99.90;;;;;;5021787;28;19959;-53
2021/06/29 03:50:56;;;;;;;;;;;18.50;99.90;;;;;;5047778;28;20333;-55
2021/06/29 03:53:22;;;;;;;;;;;18.60;99.90;;;;;;5039649;28;19916;-56
2021/06/29 03:55:47;;;;;;;;;;;18.60;99.90;;;;;;5039515;28;19920;-55
2021/06/29 03:58:12;;;;;;;;;;;18.60;99.90;;;;;;5028469;28;19954;-55
2021/06/29 04:00:38;;;;;;;;;;;18.70;99.90;;;;;;5039567;28;19913;-53
2021/06/29 04:03:03;;;;;;;;;;;18.70;99.90;;;;;;5046359;28;19909;-57
2021/06/29 04:05:29;;;;;;;;;;;18.70;99.90;;;;;;5038952;28;19909;-56
2021/06/29 04:07:54;;;;;;;;;;;18.80;99.90;;;;;;5047572;28;19908;-56
2021/06/29 04:10:20;;;;;;;;;;;18.70;99.90;;;;;;5039426;28;19971;-55
2021/06/29 04:12:45;;;;;;;;;;;18.80;99.90;;;;;;5039104;28;19920;-55
2021/06/29 04:15:12;;;;;;;;;;;18.80;99.90;;;;;;5045281;28;19952;-55
2021/06/29 04:17:38;;;;;;;;;;;18.80;99.90;;;;;;5039233;28;19932;-56
2021/06/29 04:20:04;;;;;;;;;;;18.80;99.90;;;;;;5046509;28;20442;-57
2021/06/29 04:22:30;;;;;;;;;;;18.90;99.90;;;;;;5039145;28;19909;-55
2021/06/29 04:24:57;;;;;;;;;;;18.90;99.90;;;;;;5046886;28;19939;-57
2021/06/29 04:27:22;;;;;;;;;;;18.90;99.90;;;;;;5039290;28;19909;-57
2021/06/29 04:29:48;;;;;;;;;;;19.00;99.90;;;;;;5039263;28;20398;-57
2021/06/29 04:32:14;;;;;;;;;;;19.00;99.90;;;;;;5045521;28;19913;-56
2021/06/29 04:34:40;;;;;;;;;;;19.00;99.90;;;;;;5038722;28;19909;-54
2021/06/29 04:37:07;;;;;;;;;;;19.10;99.90;;;;;;5043294;28;19909;-56
2021/06/29 04:39:33;;;;;;;;;;;19.10;99.90;;;;;;5042519;28;19909;-57
2021/06/29 04:41:58;;;;;;;;;;;19.10;99.90;;;;;;5039583;28;20457;-54
2021/06/29 04:44:24;;;;;;;;;;;19.20;99.90;;;;;;5042313;28;19908;-53
2021/06/29 04:46:50;;;;;;;;;;;19.20;99.90;;;;;;5041214;28;19996;-54
2021/06/29 04:49:18;;;;;;;;;;;19.20;99.90;;;;;;5042328;28;19909;-57
2021/06/29 04:51:43;;;;;;;;;;;19.30;99.90;;;;;;5024882;28;20275;-57
2021/06/29 04:54:09;;;;;;;;;;;19.40;99.90;;;;;;5041405;28;19940;-54
2021/06/29 04:56:34;;;;;;;;;;;19.40;99.90;;;;;;5024548;28;20303;-56
2021/06/29 04:59:01;;;;;;;;;;;19.50;99.90;;;;;;5040388;28;19976;-57
2021/06/29 05:01:28;;;;;;;;;;;19.60;99.90;;;;;;5042486;28;19909;-58
2021/06/29 05:03:54;;;;;;;;;;;19.60;99.90;;;;;;5040741;28;19940;-57
2021/06/29 05:06:19;;;;;;;;;;;19.70;99.90;;;;;;5023834;28;19913;-56
2021/06/29 05:08:45;;;;;;;;;;;19.70;99.90;;;;;;5042417;28;19917;-55
2021/06/29 05:11:10;;;;;;;;;;;19.80;99.90;;;;;;5041138;28;20382;-56
2021/06/29 05:13:36;;;;;;;;;;;19.80;99.90;;;;;;5042225;28;19909;-57
2021/06/29 05:16:02;;;;;;;;;;;19.90;99.90;;;;;;5039838;28;19911;-53
2021/06/29 05:18:28;;;;;;;;;;;20.00;99.90;;;;;;5041845;28;20279;-54
2021/06/29 05:20:56;;;;;;;;;;;20.10;99.90;;;;;;5022849;28;20434;-54
2021/06/29 05:23:22;;;;;;;;;;;20.10;99.90;;;;;;5041922;28;19909;-56
2021/06/29 05:25:48;;;;;;;;;;;20.20;99.90;;;;;;5078479;22;20070;-50
2021/06/29 05:28:14;;;;;;;;;;;20.30;99.90;;;;;;5065173;28;19913;-51
2021/06/29 05:30:39;;;;;;;;;;;20.30;99.90;;;;;;5061975;28;20302;-51
2021/06/29 05:33:05;;;;;;;;;;;20.40;99.90;;;;;;5064336;28;19909;-48
2021/06/29 05:35:30;;;;;;;;;;;20.50;99.90;;;;;;5056201;28;20012;-51
2021/06/29 05:37:56;;;;;;;;;;;20.50;99.90;;;;;;5041853;28;19920;-54
2021/06/29 05:40:21;;;;;;;;;;;20.60;99.90;;;;;;5040455;28;20082;-47
2021/06/29 05:42:46;;;;;;;;;;;20.60;99.90;;;;;;5045534;28;19959;-50
2021/06/29 05:45:14;;;;;;;;;;;20.70;99.90;;;;;;5041482;28;20260;-51
2021/06/29 05:47:40;;;;;;;;;;;20.90;99.90;;;;;;5046422;28;19909;-47
2021/06/29 05:50:09;;;;;;;;;;;21.00;99.90;;;;;;5043606;28;19913;-50
2021/06/29 05:52:35;;;;;;;;;;;21.10;99.90;;;;;;5047184;28;20016;-48
2021/06/29 05:55:00;;;;;;;;;;;21.20;99.90;;;;;;5046419;28;20000;-51
2021/06/29 05:57:26;;;;;;;;;;;21.30;99.90;;;;;;5045537;28;19905;-47
2021/06/29 05:59:51;;;;;;;;;;;21.40;99.90;;;;;;5049292;28;20612;-49
2021/06/29 06:02:17;;;;;;;;;;;21.60;99.90;;;;;;5045675;28;20370;-51
2021/06/29 06:04:43;;;;;;;;;;;21.70;99.90;;;;;;5049684;28;19935;-53
2021/06/29 06:07:08;;;;;;;;;;;21.80;99.90;;;;;;5047290;28;19920;-49
2021/06/29 06:09:34;;;;;;;;;;;21.90;99.90;;;;;;5050801;28;20294;-49
2021/06/29 06:11:59;;;;;;;;;;;21.90;99.90;;;;;;5046220;28;19913;-48
2021/06/29 06:14:25;;;;;;;;;;;21.90;99.90;;;;;;5044763;28;20038;-55
2021/06/29 06:16:51;;;;;;;;;;;21.90;99.90;;;;;;5048899;28;19909;-54
2021/06/29 06:19:16;;;;;;;;;;;22.00;99.90;;;;;;5045340;28;19919;-52
2021/06/29 06:21:42;;;;;;;;;;;22.00;99.90;;;;;;5049894;28;19916;-54
2021/06/29 06:24:07;;;;;;;;;;;22.10;99.90;;;;;;5047196;28;19913;-52
2021/06/29 06:26:33;;;;;;;;;;;22.30;99.90;;;;;;5050449;28;20294;-49
2021/06/29 06:28:58;;;;;;;;;;;22.30;99.90;;;;;;5047441;28;19960;-48
2021/06/29 06:31:24;;;;;;;;;;;22.40;99.90;;;;;;5044342;28;20071;-53
2021/06/29 06:33:49;;;;;;;;;;;22.50;99.90;;;;;;5048847;28;19909;-51
2021/06/29 06:36:15;;;;;;;;;;;22.60;99.90;;;;;;5041355;28;19954;-48
2021/06/29 06:38:41;;;;;;;;;;;22.80;99.90;;;;;;5041684;28;19917;-54
2021/06/29 06:41:06;;;;;;;;;;;22.90;99.90;;;;;;5049717;28;19952;-51
2021/06/29 06:43:32;;;;;;;;;;;22.90;99.90;;;;;;5043995;28;19964;-53
2021/06/29 06:45:57;;;;;;;;;;;23.00;99.90;;;;;;5030963;28;19908;-50
2021/06/29 06:48:23;;;;;;;;;;;23.10;99.90;;;;;;5046796;28;19935;-49
2021/06/29 06:50:48;;;;;;;;;;;23.20;99.90;;;;;;5048570;28;20382;-53
2021/06/29 06:53:14;;;;;;;;;;;23.30;99.90;;;;;;5049608;28;20018;-57
2021/06/29 06:55:40;;;;;;;;;;;23.40;99.90;;;;;;5041550;28;19916;-48
2021/06/29 06:58:05;;;;;;;;;;;23.50;99.90;;;;;;5049434;28;19963;-49
2021/06/29 07:00:31;;;;;;;;;;;23.50;99.90;;;;;;5043765;28;19916;-50
2021/06/29 07:02:56;;;;;;;;;;;23.70;99.90;;;;;;5048770;28;19909;-54
2021/06/29 07:05:22;;;;;;;;;;;23.90;99.90;;;;;;5045322;28;19916;-48
2021/06/29 07:07:47;;;;;;;;;;;24.10;99.90;;;;;;5048287;28;19920;-49
2021/06/29 07:10:13;;;;;;;;;;;24.30;99.90;;;;;;5049435;28;19952;-58
2021/06/29 07:12:38;;;;;;;;;;;24.40;99.90;;;;;;5041217;28;19913;-55
2021/06/29 07:15:04;;;;;;;;;;;24.40;99.90;;;;;;5030769;28;19908;-52
2021/06/29 07:17:30;;;;;;;;;;;24.30;99.90;;;;;;5043855;28;19913;-49
2021/06/29 07:19:55;;;;;;;;;;;24.40;99.90;;;;;;5048438;28;19916;-53
2021/06/29 07:22:21;;;;;;;;;;;24.50;99.90;;;;;;5046620;28;19912;-57
2021/06/29 07:24:46;;;;;;;;;;;24.50;99.90;;;;;;5030233;28;19911;-48
2021/06/29 07:27:12;;;;;;;;;;;24.60;99.90;;;;;;5049396;28;19952;-52
2021/06/29 07:29:37;;;;;;;;;;;24.70;99.90;;;;;;5040635;28;19916;-53
2021/06/29 07:32:04;;;;;;;;;;;24.90;99.90;;;;;;5048458;28;20524;-57
2021/06/29 07:34:30;;;;;;;;;;;25.10;99.90;;;;;;5043071;28;19910;-50
2021/06/29 07:36:55;;;;;;;;;;;25.30;99.90;;;;;;5042746;28;19909;-54
2021/06/29 07:39:21;;;;;;;;;;;25.40;99.90;;;;;;5044036;28;19924;-53
2021/06/29 07:41:46;;;;;;;;;;;25.40;99.90;;;;;;5045767;28;19955;-50
2021/06/29 07:44:12;;;;;;;;;;;25.40;99.90;;;;;;5044340;28;19909;-51
2021/06/29 07:46:37;;;;;;;;;;;25.50;99.90;;;;;;5048313;28;19987;-57
2021/06/29 07:49:03;;;;;;;;;;;25.50;99.90;;;;;;5043843;28;20327;-51
2021/06/29 07:51:29;;;;;;;;;;;25.50;99.90;;;;;;5050939;28;19952;-50
2021/06/29 07:53:55;;;;;;;;;;;25.50;99.90;;;;;;5043711;28;20379;-52
2021/06/29 07:56:20;;;;;;;;;;;25.40;99.90;;;;;;5043719;28;19908;-54
2021/06/29 07:58:46;;;;;;;;;;;25.40;99.90;;;;;;5045722;28;19920;-56
2021/06/29 08:01:13;;;;;;;;;;;25.40;99.90;;;;;;5035780;28;20027;-50
2021/06/29 08:03:39;;;;;;;;;;;25.50;99.90;;;;;;5048448;28;20282;-52
2021/06/29 08:06:04;;;;;;;;;;;25.50;99.90;;;;;;5043349;28;19909;-52
2021/06/29 08:08:30;;;;;;;;;;;25.70;99.90;;;;;;5050987;28;19908;-55
2021/06/29 08:10:59;;;;;;;;;;;26.00;99.90;;;;;;5043086;28;20399;-51
2021/06/29 08:13:25;;;;;;;;;;;26.40;99.90;;;;;;5043558;28;20318;-54
2021/06/29 08:15:50;;;;;;;;;;;26.60;99.90;;;;;;5044732;28;19963;-52
2021/06/29 08:18:16;;;;;;;;;;;26.70;99.90;;;;;;5044470;28;19935;-52
2021/06/29 08:20:42;;;;;;;;;;;26.90;99.90;;;;;;5047444;28;19909;-54
2021/06/29 08:23:08;;;;;;;;;;;27.00;99.90;;;;;;5036285;28;20344;-54
2021/06/29 08:25:34;;;;;;;;;;;27.10;99.90;;;;;;5050058;28;19923;-55
2021/06/29 08:28:00;;;;;;;;;;;27.00;99.90;;;;;;5043783;28;19909;-52
2021/06/29 08:30:26;;;;;;;;;;;27.10;99.90;;;;;;5043054;28;19913;-51
2021/06/29 08:32:52;;;;;;;;;;;27.20;99.90;;;;;;5044376;28;20318;-49
2021/06/29 08:35:18;;;;;;;;;;;27.30;99.90;;;;;;5043617;28;19908;-47
2021/06/29 08:37:43;;;;;;;;;;;27.60;99.90;;;;;;5044295;28;20451;-52
2021/06/29 08:40:10;;;;;;;;;;;27.70;99.90;;;;;;5038244;28;19909;-49
2021/06/29 08:42:37;;;;;;;;;;;27.70;99.90;;;;;;5030702;28;20300;-54
2021/06/29 08:45:03;;;;;;;;;;;27.70;99.90;;;;;;5040431;28;20284;-48
2021/06/29 08:47:29;;;;;;;;;;;27.80;99.90;;;;;;5047083;28;19931;-52
2021/06/29 08:49:54;;;;;;;;;;;27.80;99.90;;;;;;5044036;28;19909;-52
2021/06/29 08:52:20;;;;;;;;;;;27.70;99.90;;;;;;5047609;28;20059;-58
2021/06/29 08:54:48;;;;;;;;;;;27.60;99.90;;;;;;5045191;28;20395;-55
2021/06/29 08:57:13;;;;;;;;;;;27.50;99.90;;;;;;5040705;28;19913;-54
2021/06/29 08:59:39;;;;;;;;;;;27.40;99.90;;;;;;5046200;28;19931;-54
2021/06/29 09:02:05;;;;;;;;;;;27.20;99.90;;;;;;5042390;28;19909;-54
2021/06/29 09:04:50;;;;;;;;;;;27.10;99.90;;;;;;5046587;28;20335;-52
2021/06/29 09:07:23;;;;;;;;;;;27.00;99.90;;;;;;5041896;28;19913;-53
2021/06/29 09:09:55;;;;;;;;;;;27.00;99.90;;;;;;5047685;28;19909;-54
2021/06/29 09:12:47;;;;;;;;;;;27.10;99.90;;;;;;5036718;28;19921;-54
2021/06/29 09:15:22;;;;;;;;;;;27.10;99.90;;;;;;5011587;28;19940;-53
2021/06/29 09:17:47;;;;;;;;;;;27.00;99.90;;;;;;5036231;28;19913;-50
2021/06/29 09:20:13;;;;;;;;;;;26.70;99.90;;;;;;5048815;28;20367;-52
2021/06/29 09:22:38;;;;;;;;;;;26.70;99.90;;;;;;5042560;28;19913;-49
2021/06/29 09:25:20;;;;;;;;;;;26.60;99.90;;;;;;5047983;28;19959;-54
2021/06/29 09:27:47;;;;;;;;;;;26.50;99.90;;;;;;5043320;28;19964;-48
2021/06/29 09:30:28;;;;;;;;;;;26.50;99.90;;;;;;5046333;28;19959;-52
2021/06/29 09:32:56;;;;;;;;;;;26.40;99.90;;;;;;5047800;28;19960;-54
2021/06/29 09:35:22;;;;;;;;;;;26.30;99.90;;;;;;5047079;28;19909;-53
2021/06/29 09:37:48;;;;;;;;;;;26.30;99.90;;;;;;5047764;28;19917;-55
2021/06/29 09:40:14;;;;;;;;;;;26.30;99.90;;;;;;5044206;28;19909;-54
2021/06/29 09:42:40;;;;;;;;;;;26.40;99.90;;;;;;5049537;28;19909;-54
2021/06/29 09:45:26;;;;;;;;;;;26.40;99.90;;;;;;5045384;28;20409;-56
2021/06/29 09:47:51;;;;;;;;;;;26.40;99.90;;;;;;5026842;28;19996;-54
2021/06/29 09:50:35;;;;;;;;;;;26.60;99.90;;;;;;5046683;28;20007;-50
2021/06/29 09:53:17;;;;;;;;;;;26.60;99.90;;;;;;5050373;28;19920;-53
2021/06/29 09:55:45;;;;;;;;;;;26.70;99.90;;;;;;5037397;28;19975;-50
2021/06/29 09:58:11;;;;;;;;;;;27.00;99.90;;;;;;5050505;28;19916;-54
2021/06/29 10:00:40;;;;;;;;;;;27.00;99.90;;;;;;5042019;28;20291;-54
2021/06/29 10:03:15;;;;;;;;;;;27.00;99.90;;;;;;5050620;28;19948;-48
2021/06/29 10:05:41;;;;;;;;;;;27.10;99.90;;;;;;5044887;28;19963;-52
2021/06/29 10:08:07;;;;;;;;;;;27.00;99.90;;;;;;5033957;28;19912;-51
2021/06/29 10:10:32;;;;;;;;;;;27.10;99.90;;;;;;5047378;28;20008;-53
2021/06/29 10:13:15;;;;;;;;;;;27.10;99.90;;;;;;5042792;28;20036;-54
2021/06/29 10:15:40;;;;;;;;;;;27.10;99.90;;;;;;5047502;28;19909;-56
2021/06/29 10:18:06;;;;;;;;;;;27.10;99.90;;;;;;5044774;28;20303;-55
2021/06/29 10:20:48;;;;;;;;;;;27.30;99.90;;;;;;5050909;28;19916;-51
2021/06/29 10:23:15;;;;;;;;;;;27.20;99.90;;;;;;5046745;28;20280;-54
2021/06/29 10:25:41;;;;;;;;;;;27.20;99.90;;;;;;5050492;28;19921;-57
2021/06/29 10:28:06;;;;;;;;;;;27.30;99.90;;;;;;5046804;28;20461;-49
2021/06/29 10:30:32;;;;;;;;;;;27.20;99.90;;;;;;5045118;28;19957;-49
2021/06/29 10:32:57;;;;;;;;;;;27.00;99.90;;;;;;5045991;28;19913;-55
2021/06/29 10:35:23;;;;;;;;;;;27.00;99.90;;;;;;5045250;28;19909;-53
2021/06/29 10:37:49;;;;;;;;;;;26.90;99.90;;;;;;5046472;28;20395;-55
2021/06/29 10:40:15;;;;;;;;;;;26.70;99.90;;;;;;5041819;28;19909;-54
2021/06/29 10:42:42;;;;;;;;;;;26.80;99.90;;;;;;5048686;28;19916;-51
2021/06/29 10:45:14;;;;;;;;;;;26.70;99.90;;;;;;5044513;28;20006;-53
2021/06/29 10:47:40;;;;;;;;;;;26.70;99.90;;;;;;5049500;28;19909;-51
2021/06/29 10:50:14;;;;;;;;;;;26.60;99.90;;;;;;5046547;28;19908;-57
2021/06/29 10:52:40;;;;;;;;;;;26.50;99.90;;;;;;5049890;28;19920;-55
2021/06/29 10:55:18;;;;;;;;;;;26.60;99.90;;;;;;5027650;28;19996;-52
2021/06/29 10:57:44;;;;;;;;;;;26.50;99.90;;;;;;5046319;28;20390;-55
2021/06/29 11:00:16;;;;;;;;;;;26.50;99.90;;;;;;5046483;28;19917;-53
2021/06/29 11:02:42;;;;;;;;;;;26.40;99.90;;;;;;5046728;28;20050;-56
2021/06/29 11:05:09;;;;;;;;;;;26.50;99.90;;;;;;5047865;28;20058;-56
2021/06/29 11:07:35;;;;;;;;;;;26.40;99.90;;;;;;5046649;28;20452;-53
2021/06/29 11:10:03;;;;;;;;;;;26.40;99.90;;;;;;5049579;28;19908;-54
2021/06/29 11:12:30;;;;;;;;;;;26.20;99.90;;;;;;5042275;28;19913;-50
2021/06/29 11:14:56;;;;;;;;;;;26.30;99.90;;;;;;5047476;28;19916;-56
2021/06/29 11:17:23;;;;;;;;;;;26.20;99.90;;;;;;5044981;28;20023;-55
2021/06/29 11:20:00;;;;;;;;;;;26.20;99.90;;;;;;5047786;28;19909;-58
2021/06/29 11:22:45;;;;;;;;;;;26.30;99.90;;;;;;5039510;28;20056;-53
2021/06/29 11:25:10;;;;;;;;;;;26.20;99.90;;;;;;5050350;28;19925;-55
2021/06/29 11:27:54;;;;;;;;;;;26.20;99.90;;;;;;5073045;22;20006;-59
2021/06/29 11:30:40;;;;;;;;;;;26.20;99.90;;;;;;5045225;28;20403;-59
2021/06/29 11:33:24;;;;;;;;;;;26.30;99.90;;;;;;5029962;28;20298;-60
2021/06/29 11:35:50;;;;;;;;;;;26.30;99.90;;;;;;5051228;28;20356;-58
2021/06/29 11:38:15;;;;;;;;;;;26.10;99.90;;;;;;5051559;28;19917;-59
2021/06/29 11:40:41;;;;;;;;;;;26.00;99.90;;;;;;5051651;28;20375;-59
2021/06/29 11:43:08;;;;;;;;;;;25.90;99.90;;;;;;5036529;28;19913;-61
2021/06/29 11:45:33;;;;;;;;;;;25.70;99.90;;;;;;5051392;28;20004;-60
2021/06/29 11:47:59;;;;;;;;;;;25.60;99.90;;;;;;5051579;28;20003;-60
2021/06/29 11:50:25;;;;;;;;;;;25.40;99.90;;;;;;5051411;28;19909;-60
2021/06/29 11:52:51;;;;;;;;;;;25.30;99.90;;;;;;5051198;28;20075;-60
2021/06/29 11:55:18;;;;;;;;;;;25.30;99.90;;;;;;5051225;28;19909;-61
2021/06/29 11:57:50;;;;;;;;;;;25.20;99.90;;;;;;5051398;28;19909;-61
2021/06/29 12:00:19;;;;;;;;;;;25.10;99.90;;;;;;5047414;28;19913;-61
2021/06/29 12:02:45;;;;;;;;;;;25.10;99.90;;;;;;5051256;28;19962;-58
2021/06/29 12:05:18;;;;;;;;;;;24.90;99.90;;;;;;5050877;28;19951;-60
2021/06/29 12:07:51;;;;;;;;;;;24.70;99.90;;;;;;5051040;28;19919;-58
2021/06/29 12:10:16;;;;;;;;;;;24.80;99.90;;;;;;5045655;28;19920;-59
2021/06/29 12:12:43;;;;;;;;;;;24.90;99.90;;;;;;5051013;28;19913;-59
2021/06/29 12:15:16;;;;;;;;;;;25.10;99.90;;;;;;5050782;28;20323;-59
2021/06/29 12:17:53;;;;;;;;;;;25.30;99.90;;;;;;5050960;28;20375;-59
2021/06/29 12:20:20;;;;;;;;;;;25.50;99.90;;;;;;5044547;28;19995;-60
2021/06/29 12:22:47;;;;;;;;;;;25.60;99.90;;;;;;5050770;28;19912;-60
2021/06/29 12:25:20;;;;;;;;;;;25.70;99.90;;;;;;5050877;28;19908;-59
2021/06/29 12:27:47;;;;;;;;;;;25.70;99.90;;;;;;5050434;28;19921;-58
2021/06/29 12:30:18;;;;;;;;;;;25.70;99.90;;;;;;5050742;28;19909;-59
2021/06/29 12:32:44;;;;;;;;;;;25.70;99.90;;;;;;5050332;28;20417;-59
2021/06/29 12:35:10;;;;;;;;;;;25.70;99.90;;;;;;5050337;28;19921;-59
2021/06/29 12:37:50;;;;;;;;;;;25.60;99.90;;;;;;5050421;28;20510;-60
2021/06/29 12:40:16;;;;;;;;;;;25.40;99.90;;;;;;5049994;28;19913;-60
2021/06/29 12:42:41;;;;;;;;;;;25.30;99.90;;;;;;5050692;28;20302;-58
2021/06/29 12:45:08;;;;;;;;;;;25.20;99.90;;;;;;5049893;28;19961;-58
2021/06/29 12:47:33;;;;;;;;;;;25.20;99.90;;;;;;5050670;28;20332;-58
2021/06/29 12:49:58;;;;;;;;;;;25.00;99.90;;;;;;5050612;28;19909;-59
2021/06/29 12:52:24;;;;;;;;;;;25.00;99.90;;;;;;5050312;28;19913;-60
2021/06/29 12:54:52;;;;;;;;;;;25.00;99.90;;;;;;5050568;28;19909;-59
2021/06/29 12:57:17;;;;;;;;;;;24.80;99.90;;;;;;5050327;28;19909;-60
2021/06/29 12:59:46;;;;;;;;;;;24.70;99.90;;;;;;5043005;28;19909;-60
2021/06/29 13:02:19;;;;;;;;;;;24.60;99.90;;;;;;5049390;28;19983;-59
2021/06/29 13:04:46;;;;;;;;;;;24.60;99.90;;;;;;5031837;28;19909;-59
2021/06/29 13:07:13;;;;;;;;;;;24.50;99.90;;;;;;5038117;28;19915;-58
2021/06/29 13:09:40;;;;;;;;;;;24.50;99.90;;;;;;5050283;28;19944;-59
2021/06/29 13:12:15;;;;;;;;;;;24.40;99.90;;;;;;5049960;28;19944;-58
2021/06/29 13:14:53;;;;;;;;;;;24.40;99.90;;;;;;5050315;28;20252;-58
2021/06/29 13:17:19;;;;;;;;;;;24.60;99.90;;;;;;5046753;28;19908;-60
2021/06/29 13:19:44;;;;;;;;;;;24.60;99.90;;;;;;5050365;28;19909;-58
2021/06/29 13:22:10;;;;;;;;;;;24.80;99.90;;;;;;5049885;28;20299;-59
2021/06/29 13:24:44;;;;;;;;;;;24.80;99.90;;;;;;5049835;28;20302;-58
2021/06/29 13:27:11;;;;;;;;;;;24.90;99.90;;;;;;5049793;28;20002;-58
2021/06/29 13:29:38;;;;;;;;;;;24.90;99.90;;;;;;5049720;28;19960;-59
2021/06/29 13:32:06;;;;;;;;;;;24.80;99.90;;;;;;5049933;28;19919;-59
2021/06/29 13:34:35;;;;;;;;;;;24.70;99.90;;;;;;5031695;28;20054;-59
2021/06/29 13:37:17;;;;;;;;;;;24.70;99.90;;;;;;5049710;28;20348;-60
2021/06/29 13:39:43;;;;;;;;;;;24.50;99.90;;;;;;5049794;28;19909;-60
2021/06/29 13:42:21;;;;;;;;;;;24.30;99.90;;;;;;5049855;28;19916;-60
2021/06/29 13:44:56;;;;;;;;;;;24.30;99.90;;;;;;5049741;28;20438;-60
2021/06/29 13:47:22;;;;;;;;;;;24.20;99.90;;;;;;5043143;28;19991;-62
2021/06/29 13:49:58;;;;;;;;;;;24.10;99.90;;;;;;5050056;28;19960;-59
2021/06/29 13:52:23;;;;;;;;;;;23.90;99.90;;;;;;5042620;28;20365;-58
2021/06/29 13:55:08;;;;;;;;;;;23.80;99.90;;;;;;5049804;28;19992;-61
2021/06/29 13:57:33;;;;;;;;;;;23.70;99.90;;;;;;5044148;28;20043;-59
2021/06/29 13:59:59;;;;;;;;;;;23.60;99.90;;;;;;5049667;28;19944;-57
2021/06/29 14:02:28;;;;;;;;;;;23.60;99.90;;;;;;5049594;28;19944;-59
2021/06/29 14:04:54;;;;;;;;;;;23.50;99.90;;;;;;5050095;28;20372;-59
2021/06/29 14:07:20;;;;;;;;;;;23.50;99.90;;;;;;5049763;28;19909;-57
2021/06/29 14:09:46;;;;;;;;;;;23.40;99.90;;;;;;5049804;28;20012;-57
2021/06/29 14:12:25;;;;;;;;;;;23.40;99.90;;;;;;5031731;28;19919;-56
2021/06/29 14:15:01;;;;;;;;;;;23.30;99.90;;;;;;5051775;28;19932;-53
2021/06/29 14:17:29;;;;;;;;;;;23.00;99.90;;;;;;5053573;28;19988;-50